Annabella 1 — 9HAO8 — position and weather

sailwx.info

Track history (hours):
 
Tides and Currents Weather Stations Pressure Air Temp Water Temp Dewpoint Dewpoint Depression Visibility Wind Speed Wind Dir Waves Ship Positions

Annabella 1

Last reported at 2017-Dec-09 20:06 UTC. Time now 2017-Dec-12 16:16 UTC.
Position N 46°22' E 030°55'.

Length 122 m; draft 8.6 m.

Type: Cargo ship. MMSI: 215784000.

Date/timePositionNaut miles runAvg speedWind from/ knotsBaromVisibWave heightAir tempDewpointWater temp
2017-Dec-09 20:06N 46°22' E 030°55'2 9.6
2017-Dec-09 19:51N 46°25' E 030°55'3 9.4
2017-Dec-09 19:29N 46°28' E 030°55'3 6.6
2017-Dec-09 19:00N 46°30' E 030°51'0 0.1
2017-Dec-09 18:30N 46°30' E 030°51'0 0.0
2017-Dec-09 17:57N 46°30' E 030°51'0 0.0
2017-Dec-09 17:21N 46°30' E 030°51'0 0.0
2017-Dec-09 16:51N 46°30' E 030°51'0 0.0
2017-Dec-09 16:27N 46°30' E 030°51'0 0.0
2017-Dec-09 15:57N 46°30' E 030°51'0 0.0
2017-Dec-09 15:21N 46°30' E 030°51'0 0.0
2017-Dec-09 14:51N 46°30' E 030°51'0 0.0
2017-Dec-09 13:39N 46°30' E 030°51'0 0.0
2017-Dec-09 13:30N 46°30' E 030°51'0 0.0
2017-Dec-09 12:51N 46°30' E 030°51'0 0.0
2017-Dec-09 12:27N 46°30' E 030°51'0 0.0
2017-Dec-09 11:45N 46°30' E 030°51'0 0.0
2017-Dec-09 11:27N 46°30' E 030°51'0 0.0
2017-Dec-09 10:57N 46°30' E 030°51'0 0.0
2017-Dec-09 10:24N 46°30' E 030°51'0 0.0
2017-Dec-09 10:00N 46°30' E 030°51'0 0.0
2017-Dec-09 09:27N 46°30' E 030°51'0 0.0
2017-Dec-09 08:45N 46°30' E 030°51'0 0.0
2017-Dec-09 08:15N 46°30' E 030°51'0 0.0
2017-Dec-09 07:42N 46°30' E 030°51'0 0.0
2017-Dec-09 07:24N 46°30' E 030°51'0 0.0
2017-Dec-09 07:00N 46°30' E 030°51'0 0.0
2017-Dec-09 05:21N 46°30' E 030°51'0 0.0
2017-Dec-09 04:57N 46°30' E 030°51'0 0.0
2017-Dec-09 04:24N 46°30' E 030°51'0 0.0
2017-Dec-09 04:00N 46°30' E 030°51'0 0.0
2017-Dec-09 03:27N 46°30' E 030°51'0 0.0
2017-Dec-09 02:54N 46°30' E 030°51'0 0.0
2017-Dec-09 02:30N 46°30' E 030°51'0 0.0
2017-Dec-09 01:54N 46°30' E 030°51'0 0.0
2017-Dec-09 01:27N 46°30' E 030°51'0 0.0
2017-Dec-09 00:54N 46°30' E 030°51'0 0.0
2017-Dec-09 00:30N 46°30' E 030°51'0 0.0
2017-Dec-08 23:57N 46°30' E 030°51'0 0.0
2017-Dec-08 23:24N 46°30' E 030°51'0 0.0
2017-Dec-08 22:51N 46°30' E 030°51'0 0.0
2017-Dec-08 22:27N 46°30' E 030°51'0 0.0
2017-Dec-08 21:54N 46°30' E 030°51'0 0.0
2017-Dec-08 18:33N 46°30' E 030°51'0 0.0
2017-Dec-08 18:09N 46°30' E 030°51'0 0.0
2017-Dec-08 17:51N 46°30' E 030°51'0 0.0
2017-Dec-08 17:27N 46°30' E 030°51'0 0.0
2017-Dec-08 16:51N 46°30' E 030°51'0 0.0
2017-Dec-08 16:30N 46°30' E 030°51'0 0.0
2017-Dec-08 16:00N 46°30' E 030°51'0 0.0
2017-Dec-08 15:30N 46°30' E 030°51'0 0.0
2017-Dec-08 15:00N 46°30' E 030°51'0 0.0
2017-Dec-08 14:27N 46°30' E 030°51'0 0.2
2017-Dec-08 13:52N 46°30' E 030°51'3 7.3
2017-Dec-08 13:30N 46°30' E 030°47'2 4.9
2017-Dec-08 13:00N 46°30' E 030°44'0 0.0
2017-Dec-08 12:27N 46°30' E 030°44'0 0.0
2017-Dec-08 12:00N 46°30' E 030°44'0 0.0
2017-Dec-08 11:30N 46°30' E 030°44'0 0.0
2017-Dec-08 10:39N 46°30' E 030°44'0 0.0
2017-Dec-08 10:21N 46°30' E 030°44'0 0.0
2017-Dec-08 09:57N 46°30' E 030°44'0 0.0
2017-Dec-08 09:30N 46°30' E 030°44'0 0.0
2017-Dec-08 09:00N 46°30' E 030°44'0 0.0
2017-Dec-08 08:30N 46°30' E 030°44'0 0.0
2017-Dec-08 07:48N 46°30' E 030°44'0 0.0
2017-Dec-08 07:21N 46°30' E 030°44'0 0.0
2017-Dec-08 06:51N 46°30' E 030°44'0 0.0
2017-Dec-08 06:21N 46°30' E 030°44'0 0.0
2017-Dec-08 05:57N 46°30' E 030°44'0 0.0
2017-Dec-08 05:30N 46°30' E 030°44'0 0.0
2017-Dec-08 04:57N 46°30' E 030°44'0 0.0
2017-Dec-08 04:30N 46°30' E 030°44'0 0.0
2017-Dec-08 03:54N 46°30' E 030°44'0 0.0
2017-Dec-08 03:27N 46°30' E 030°44'0 0.0
2017-Dec-08 02:54N 46°30' E 030°44'0 0.0
2017-Dec-08 02:27N 46°30' E 030°44'0 0.0
2017-Dec-08 01:57N 46°30' E 030°44'0 0.0
2017-Dec-08 01:24N 46°30' E 030°44'0 0.0
2017-Dec-08 00:57N 46°30' E 030°44'0 0.0
2017-Dec-08 00:30N 46°30' E 030°44'0 0.0
2017-Dec-08 00:00N 46°30' E 030°44'0 0.0
2017-Dec-07 23:30N 46°30' E 030°44'0 0.0
2017-Dec-07 22:48N 46°30' E 030°44'0 0.0
2017-Dec-07 22:30N 46°30' E 030°44'0 0.0
2017-Dec-07 22:00N 46°30' E 030°44'0 0.0
2017-Dec-07 21:12N 46°30' E 030°44'0 0.0
2017-Dec-07 20:15N 46°30' E 030°44'0 0.0
2017-Dec-07 19:57N 46°30' E 030°44'0 0.0
2017-Dec-07 19:30N 46°30' E 030°44'0 0.0
2017-Dec-07 19:00N 46°30' E 030°44'0 0.0
2017-Dec-07 18:30N 46°30' E 030°44'0 0.0
2017-Dec-07 17:57N 46°30' E 030°44'0 0.0
2017-Dec-07 17:21N 46°30' E 030°44'0 0.0
2017-Dec-07 16:30N 46°30' E 030°44'0 0.0
2017-Dec-07 16:00N 46°30' E 030°44'0 0.0
2017-Dec-07 15:30N 46°30' E 030°44'0 0.0
2017-Dec-07 15:00N 46°30' E 030°44'0 0.0
2017-Dec-07 14:27N 46°30' E 030°44'0 0.0
2017-Dec-07 13:57N 46°30' E 030°44'0 0.0
2017-Dec-07 13:27N 46°30' E 030°44'0 0.0
2017-Dec-07 12:48N 46°30' E 030°44'0 0.0
2017-Dec-07 12:27N 46°30' E 030°44'0 0.0
2017-Dec-07 11:51N 46°30' E 030°44'0 0.0
2017-Dec-07 11:27N 46°30' E 030°44'0 0.0
2017-Dec-07 11:00N 46°30' E 030°44'0 0.0
2017-Dec-07 10:27N 46°30' E 030°44'0 0.0
2017-Dec-07 10:00N 46°30' E 030°44'0 0.0
2017-Dec-07 09:30N 46°30' E 030°44'0 0.0
2017-Dec-07 08:42N 46°30' E 030°44'0 0.0
2017-Dec-07 08:24N 46°30' E 030°44'0 0.0
2017-Dec-07 07:57N 46°30' E 030°44'0 0.0
2017-Dec-07 07:27N 46°30' E 030°44'0 0.0
2017-Dec-07 07:00N 46°30' E 030°44'0 0.0
2017-Dec-07 06:27N 46°30' E 030°44'0 0.0
2017-Dec-07 06:00N 46°30' E 030°44'0 0.0
2017-Dec-07 05:27N 46°30' E 030°44'0 0.0
2017-Dec-07 05:00N 46°30' E 030°44'0 0.0
2017-Dec-07 04:12N 46°30' E 030°44'0 0.0
2017-Dec-07 03:54N 46°30' E 030°44'0 0.0
2017-Dec-07 03:30N 46°30' E 030°44'0 0.0
2017-Dec-07 02:57N 46°30' E 030°44'0 0.0
2017-Dec-07 02:27N 46°30' E 030°44'0 0.0
2017-Dec-07 01:54N 46°30' E 030°44'0 0.0
2017-Dec-07 01:27N 46°30' E 030°44'0 0.0
2017-Dec-07 01:00N 46°30' E 030°44'0 0.0
2017-Dec-07 00:27N 46°30' E 030°44'0 0.0
2017-Dec-07 00:00N 46°30' E 030°44'0 0.0
2017-Dec-06 23:27N 46°30' E 030°44'0 0.0
2017-Dec-06 23:00N 46°30' E 030°44'0 0.0
2017-Dec-06 22:15N 46°30' E 030°44'0 0.0
2017-Dec-06 21:51N 46°30' E 030°44'0 0.0
2017-Dec-06 21:06N 46°30' E 030°44'0 0.0
2017-Dec-06 20:54N 46°30' E 030°44'  
2017-Dec-04 09:29N 46°27' E 030°53'0 0.0
2017-Dec-04 08:50N 46°27' E 030°53'0 0.1
2017-Dec-04 08:29N 46°27' E 030°53'0 0.0
2017-Dec-04 07:17N 46°27' E 030°53'0 0.0
2017-Dec-04 06:44N 46°27' E 030°53'0 0.0
2017-Dec-04 06:29N 46°27' E 030°53'0 0.0
2017-Dec-04 05:59N 46°27' E 030°53'0 0.0
2017-Dec-04 04:23N 46°27' E 030°53'0 0.0
2017-Dec-04 03:59N 46°27' E 030°53'0 0.0
2017-Dec-04 03:29N 46°27' E 030°53'0 0.0
2017-Dec-04 02:56N 46°27' E 030°53'0 0.0
2017-Dec-04 02:29N 46°27' E 030°53'0 0.0
2017-Dec-04 01:53N 46°27' E 030°53'0 0.0
2017-Dec-04 01:29N 46°27' E 030°53'0 0.0
2017-Dec-03 23:14N 46°27' E 030°53'0 0.0
2017-Dec-03 22:59N 46°27' E 030°53'0 0.1
2017-Dec-03 22:23N 46°27' E 030°53'0 0.0
2017-Dec-03 21:53N 46°27' E 030°53'0 0.1
2017-Dec-03 21:02N 46°27' E 030°53'0 0.1
2017-Dec-03 20:53N 46°27' E 030°53'0 0.0
2017-Dec-03 18:32N 46°27' E 030°53'0 0.1
2017-Dec-03 18:29N 46°27' E 030°53'0 0.1
2017-Dec-03 17:59N 46°27' E 030°53'0 0.1
2017-Dec-03 17:26N 46°27' E 030°53'0 0.0
2017-Dec-03 16:50N 46°27' E 030°53'0 0.0
2017-Dec-03 16:29N 46°27' E 030°53'0 0.1
2017-Dec-03 15:44N 46°27' E 030°53'0 0.0
2017-Dec-03 15:29N 46°27' E 030°53'0 0.0
2017-Dec-03 14:59N 46°27' E 030°53'0 0.0
2017-Dec-03 14:29N 46°27' E 030°53'0 0.0
2017-Dec-03 13:59N 46°27' E 030°53'0 0.0
2017-Dec-03 13:20N 46°27' E 030°53'0 0.5
2017-Dec-03 12:59N 46°27' E 030°53'4 7.6
2017-Dec-03 12:30N 46°24' E 030°53'  
Track history (hours):
 
Tides and Currents Weather Stations Pressure Air Temp Water Temp Dewpoint Dewpoint Depression Visibility Wind Speed Wind Dir Waves Ship Positions

Annabella 1

Last reported at 2017-Dec-09 20:06 UTC. Time now 2017-Dec-12 16:16 UTC.
Position N 46°22' E 030°55'.

Length 122 m; draft 8.6 m.

Type: Cargo ship. MMSI: 215784000.

Date/timePositionNaut miles runAvg speedWind from/ knotsBaromVisibWave heightAir tempDewpointWater temp
2017-Dec-09 20:06N 46°22' E 030°55'2 9.6
2017-Dec-09 19:51N 46°25' E 030°55'3 9.4
2017-Dec-09 19:29N 46°28' E 030°55'3 6.6
2017-Dec-09 19:00N 46°30' E 030°51'0 0.1
2017-Dec-09 18:30N 46°30' E 030°51'0 0.0
2017-Dec-09 17:57N 46°30' E 030°51'0 0.0
2017-Dec-09 17:21N 46°30' E 030°51'0 0.0
2017-Dec-09 16:51N 46°30' E 030°51'0 0.0
2017-Dec-09 16:27N 46°30' E 030°51'0 0.0
2017-Dec-09 15:57N 46°30' E 030°51'0 0.0
2017-Dec-09 15:21N 46°30' E 030°51'0 0.0
2017-Dec-09 14:51N 46°30' E 030°51'0 0.0
2017-Dec-09 13:39N 46°30' E 030°51'0 0.0
2017-Dec-09 13:30N 46°30' E 030°51'0 0.0
2017-Dec-09 12:51N 46°30' E 030°51'0 0.0
2017-Dec-09 12:27N 46°30' E 030°51'0 0.0
2017-Dec-09 11:45N 46°30' E 030°51'0 0.0
2017-Dec-09 11:27N 46°30' E 030°51'0 0.0
2017-Dec-09 10:57N 46°30' E 030°51'0 0.0
2017-Dec-09 10:24N 46°30' E 030°51'0 0.0
2017-Dec-09 10:00N 46°30' E 030°51'0 0.0
2017-Dec-09 09:27N 46°30' E 030°51'0 0.0
2017-Dec-09 08:45N 46°30' E 030°51'0 0.0
2017-Dec-09 08:15N 46°30' E 030°51'0 0.0
2017-Dec-09 07:42N 46°30' E 030°51'0 0.0
2017-Dec-09 07:24N 46°30' E 030°51'0 0.0
2017-Dec-09 07:00N 46°30' E 030°51'0 0.0
2017-Dec-09 05:21N 46°30' E 030°51'0 0.0
2017-Dec-09 04:57N 46°30' E 030°51'0 0.0
2017-Dec-09 04:24N 46°30' E 030°51'0 0.0
2017-Dec-09 04:00N 46°30' E 030°51'0 0.0
2017-Dec-09 03:27N 46°30' E 030°51'0 0.0
2017-Dec-09 02:54N 46°30' E 030°51'0 0.0
2017-Dec-09 02:30N 46°30' E 030°51'0 0.0
2017-Dec-09 01:54N 46°30' E 030°51'0 0.0
2017-Dec-09 01:27N 46°30' E 030°51'0 0.0
2017-Dec-09 00:54N 46°30' E 030°51'0 0.0
2017-Dec-09 00:30N 46°30' E 030°51'0 0.0
2017-Dec-08 23:57N 46°30' E 030°51'0 0.0
2017-Dec-08 23:24N 46°30' E 030°51'0 0.0
2017-Dec-08 22:51N 46°30' E 030°51'0 0.0
2017-Dec-08 22:27N 46°30' E 030°51'0 0.0
2017-Dec-08 21:54N 46°30' E 030°51'0 0.0
2017-Dec-08 18:33N 46°30' E 030°51'0 0.0
2017-Dec-08 18:09N 46°30' E 030°51'0 0.0
2017-Dec-08 17:51N 46°30' E 030°51'0 0.0
2017-Dec-08 17:27N 46°30' E 030°51'0 0.0
2017-Dec-08 16:51N 46°30' E 030°51'0 0.0
2017-Dec-08 16:30N 46°30' E 030°51'0 0.0
2017-Dec-08 16:00N 46°30' E 030°51'0 0.0
2017-Dec-08 15:30N 46°30' E 030°51'0 0.0
2017-Dec-08 15:00N 46°30' E 030°51'0 0.0
2017-Dec-08 14:27N 46°30' E 030°51'0 0.2
2017-Dec-08 13:52N 46°30' E 030°51'3 7.3
2017-Dec-08 13:30N 46°30' E 030°47'2 4.9
2017-Dec-08 13:00N 46°30' E 030°44'0 0.0
2017-Dec-08 12:27N 46°30' E 030°44'0 0.0
2017-Dec-08 12:00N 46°30' E 030°44'0 0.0
2017-Dec-08 11:30N 46°30' E 030°44'0 0.0
2017-Dec-08 10:39N 46°30' E 030°44'0 0.0
2017-Dec-08 10:21N 46°30' E 030°44'0 0.0
2017-Dec-08 09:57N 46°30' E 030°44'0 0.0
2017-Dec-08 09:30N 46°30' E 030°44'0 0.0
2017-Dec-08 09:00N 46°30' E 030°44'0 0.0
2017-Dec-08 08:30N 46°30' E 030°44'0 0.0
2017-Dec-08 07:48N 46°30' E 030°44'0 0.0
2017-Dec-08 07:21N 46°30' E 030°44'0 0.0
2017-Dec-08 06:51N 46°30' E 030°44'0 0.0
2017-Dec-08 06:21N 46°30' E 030°44'0 0.0
2017-Dec-08 05:57N 46°30' E 030°44'0 0.0
2017-Dec-08 05:30N 46°30' E 030°44'0 0.0
2017-Dec-08 04:57N 46°30' E 030°44'0 0.0
2017-Dec-08 04:30N 46°30' E 030°44'0 0.0
2017-Dec-08 03:54N 46°30' E 030°44'0 0.0
2017-Dec-08 03:27N 46°30' E 030°44'0 0.0
2017-Dec-08 02:54N 46°30' E 030°44'0 0.0
2017-Dec-08 02:27N 46°30' E 030°44'0 0.0
2017-Dec-08 01:57N 46°30' E 030°44'0 0.0
2017-Dec-08 01:24N 46°30' E 030°44'0 0.0
2017-Dec-08 00:57N 46°30' E 030°44'0 0.0
2017-Dec-08 00:30N 46°30' E 030°44'0 0.0
2017-Dec-08 00:00N 46°30' E 030°44'0 0.0
2017-Dec-07 23:30N 46°30' E 030°44'0 0.0
2017-Dec-07 22:48N 46°30' E 030°44'0 0.0
2017-Dec-07 22:30N 46°30' E 030°44'0 0.0
2017-Dec-07 22:00N 46°30' E 030°44'0 0.0
2017-Dec-07 21:12N 46°30' E 030°44'0 0.0
2017-Dec-07 20:15N 46°30' E 030°44'0 0.0
2017-Dec-07 19:57N 46°30' E 030°44'0 0.0
2017-Dec-07 19:30N 46°30' E 030°44'0 0.0
2017-Dec-07 19:00N 46°30' E 030°44'0 0.0
2017-Dec-07 18:30N 46°30' E 030°44'0 0.0
2017-Dec-07 17:57N 46°30' E 030°44'0 0.0
2017-Dec-07 17:21N 46°30' E 030°44'0 0.0
2017-Dec-07 16:30N 46°30' E 030°44'0 0.0
2017-Dec-07 16:00N 46°30' E 030°44'0 0.0
2017-Dec-07 15:30N 46°30' E 030°44'0 0.0
2017-Dec-07 15:00N 46°30' E 030°44'0 0.0
2017-Dec-07 14:27N 46°30' E 030°44'0 0.0
2017-Dec-07 13:57N 46°30' E 030°44'0 0.0
2017-Dec-07 13:27N 46°30' E 030°44'0 0.0
2017-Dec-07 12:48N 46°30' E 030°44'0 0.0
2017-Dec-07 12:27N 46°30' E 030°44'0 0.0
2017-Dec-07 11:51N 46°30' E 030°44'0 0.0
2017-Dec-07 11:27N 46°30' E 030°44'0 0.0
2017-Dec-07 11:00N 46°30' E 030°44'0 0.0
2017-Dec-07 10:27N 46°30' E 030°44'0 0.0
2017-Dec-07 10:00N 46°30' E 030°44'0 0.0
2017-Dec-07 09:30N 46°30' E 030°44'0 0.0
2017-Dec-07 08:42N 46°30' E 030°44'0 0.0
2017-Dec-07 08:24N 46°30' E 030°44'0 0.0
2017-Dec-07 07:57N 46°30' E 030°44'0 0.0
2017-Dec-07 07:27N 46°30' E 030°44'0 0.0
2017-Dec-07 07:00N 46°30' E 030°44'0 0.0
2017-Dec-07 06:27N 46°30' E 030°44'0 0.0
2017-Dec-07 06:00N 46°30' E 030°44'0 0.0
2017-Dec-07 05:27N 46°30' E 030°44'0 0.0
2017-Dec-07 05:00N 46°30' E 030°44'0 0.0
2017-Dec-07 04:12N 46°30' E 030°44'0 0.0
2017-Dec-07 03:54N 46°30' E 030°44'0 0.0
2017-Dec-07 03:30N 46°30' E 030°44'0 0.0
2017-Dec-07 02:57N 46°30' E 030°44'0 0.0
2017-Dec-07 02:27N 46°30' E 030°44'0 0.0
2017-Dec-07 01:54N 46°30' E 030°44'0 0.0
2017-Dec-07 01:27N 46°30' E 030°44'0 0.0
2017-Dec-07 01:00N 46°30' E 030°44'0 0.0
2017-Dec-07 00:27N 46°30' E 030°44'0 0.0
2017-Dec-07 00:00N 46°30' E 030°44'0 0.0
2017-Dec-06 23:27N 46°30' E 030°44'0 0.0
2017-Dec-06 23:00N 46°30' E 030°44'0 0.0
2017-Dec-06 22:15N 46°30' E 030°44'0 0.0
2017-Dec-06 21:51N 46°30' E 030°44'0 0.0
2017-Dec-06 21:06N 46°30' E 030°44'0 0.0
2017-Dec-06 20:54N 46°30' E 030°44'  
2017-Dec-04 09:29N 46°27' E 030°53'0 0.0
2017-Dec-04 08:50N 46°27' E 030°53'0 0.1
2017-Dec-04 08:29N 46°27' E 030°53'0 0.0
2017-Dec-04 07:17N 46°27' E 030°53'0 0.0
2017-Dec-04 06:44N 46°27' E 030°53'0 0.0
2017-Dec-04 06:29N 46°27' E 030°53'0 0.0
2017-Dec-04 05:59N 46°27' E 030°53'0 0.0
2017-Dec-04 04:23N 46°27' E 030°53'0 0.0
2017-Dec-04 03:59N 46°27' E 030°53'0 0.0
2017-Dec-04 03:29N 46°27' E 030°53'0 0.0
2017-Dec-04 02:56N 46°27' E 030°53'0 0.0
2017-Dec-04 02:29N 46°27' E 030°53'0 0.0
2017-Dec-04 01:53N 46°27' E 030°53'0 0.0
2017-Dec-04 01:29N 46°27' E 030°53'0 0.0
2017-Dec-03 23:14N 46°27' E 030°53'0 0.0
2017-Dec-03 22:59N 46°27' E 030°53'0 0.1
2017-Dec-03 22:23N 46°27' E 030°53'0 0.0
2017-Dec-03 21:53N 46°27' E 030°53'0 0.1
2017-Dec-03 21:02N 46°27' E 030°53'0 0.1
2017-Dec-03 20:53N 46°27' E 030°53'0 0.0
2017-Dec-03 18:32N 46°27' E 030°53'0 0.1
2017-Dec-03 18:29N 46°27' E 030°53'0 0.1
2017-Dec-03 17:59N 46°27' E 030°53'0 0.1
2017-Dec-03 17:26N 46°27' E 030°53'0 0.0
2017-Dec-03 16:50N 46°27' E 030°53'0 0.0
2017-Dec-03 16:29N 46°27' E 030°53'0 0.1
2017-Dec-03 15:44N 46°27' E 030°53'0 0.0
2017-Dec-03 15:29N 46°27' E 030°53'0 0.0
2017-Dec-03 14:59N 46°27' E 030°53'0 0.0
2017-Dec-03 14:29N 46°27' E 030°53'0 0.0
2017-Dec-03 13:59N 46°27' E 030°53'0 0.0
2017-Dec-03 13:20N 46°27' E 030°53'0 0.5
2017-Dec-03 12:59N 46°27' E 030°53'4 7.6
2017-Dec-03 12:30N 46°24' E 030°53'  

Dump ship's entire track history